sensor_id;sensor_type;location;lat;lon;timestamp;P1;durP1;ratioP1;P2;durP2;ratioP2
22525;SDS011;11429;50.842;4.386;2023-05-20T14:01:43;5.03;;;2.67;;
22525;SDS011;11429;50.842;4.386;2023-05-20T14:04:10;8.02;;;2.25;;
22525;SDS011;11429;50.842;4.386;2023-05-20T14:06:39;5.28;;;2.90;;
22525;SDS011;11429;50.842;4.386;2023-05-20T14:09:05;4.72;;;2.50;;
22525;SDS011;11429;50.842;4.386;2023-05-20T14:11:34;8.40;;;2.55;;
22525;SDS011;11429;50.842;4.386;2023-05-20T14:14:00;7.60;;;2.67;;
22525;SDS011;11429;50.842;4.386;2023-05-20T14:16:26;3.55;;;2.22;;
22525;SDS011;11429;50.842;4.386;2023-05-20T14:18:52;6.90;;;2.47;;
22525;SDS011;11429;50.842;4.386;2023-05-20T14:21:18;6.88;;;2.42;;
22525;SDS011;11429;50.842;4.386;2023-05-20T14:23:43;4.82;;;2.65;;
22525;SDS011;11429;50.842;4.386;2023-05-20T14:26:09;5.90;;;2.50;;
22525;SDS011;11429;50.842;4.386;2023-05-20T14:28:35;5.65;;;2.83;;
22525;SDS011;11429;50.842;4.386;2023-05-20T14:31:01;4.93;;;2.40;;
22525;SDS011;11429;50.842;4.386;2023-05-20T14:33:31;4.05;;;2.70;;
22525;SDS011;11429;50.842;4.386;2023-05-20T14:35:57;5.95;;;2.55;;
22525;SDS011;11429;50.842;4.386;2023-05-20T14:38:23;5.00;;;2.85;;
22525;SDS011;11429;50.842;4.386;2023-05-20T14:40:50;5.93;;;2.50;;
22525;SDS011;11429;50.842;4.386;2023-05-20T14:43:16;3.45;;;2.28;;
22525;SDS011;11429;50.842;4.386;2023-05-20T14:45:42;6.60;;;2.75;;
22525;SDS011;11429;50.842;4.386;2023-05-20T14:48:10;5.60;;;2.40;;
22525;SDS011;11429;50.842;4.386;2023-05-20T14:50:38;3.67;;;2.38;;
22525;SDS011;11429;50.842;4.386;2023-05-20T14:53:04;5.15;;;2.60;;
22525;SDS011;11429;50.842;4.386;2023-05-20T14:55:30;4.40;;;2.42;;
22525;SDS011;11429;50.842;4.386;2023-05-20T14:57:56;3.83;;;2.72;;
22525;SDS011;11429;50.842;4.386;2023-05-20T15:00:21;12.18;;;2.53;;
22525;SDS011;11429;50.842;4.386;2023-05-20T15:02:47;5.70;;;2.60;;
22525;SDS011;11429;50.842;4.386;2023-05-20T15:05:13;4.20;;;2.60;;
22525;SDS011;11429;50.842;4.386;2023-05-20T15:07:38;4.18;;;2.70;;
22525;SDS011;11429;50.842;4.386;2023-05-20T15:10:04;5.97;;;2.38;;
22525;SDS011;11429;50.842;4.386;2023-05-20T15:12:31;4.90;;;2.40;;
22525;SDS011;11429;50.842;4.386;2023-05-20T15:15:00;5.00;;;2.20;;
22525;SDS011;11429;50.842;4.386;2023-05-20T15:17:25;5.65;;;2.55;;
22525;SDS011;11429;50.842;4.386;2023-05-20T15:19:51;10.15;;;2.88;;
22525;SDS011;11429;50.842;4.386;2023-05-20T15:22:17;4.70;;;2.65;;
22525;SDS011;11429;50.842;4.386;2023-05-20T15:24:43;5.15;;;2.15;;
22525;SDS011;11429;50.842;4.386;2023-05-20T15:27:08;5.18;;;2.30;;
22525;SDS011;11429;50.842;4.386;2023-05-20T15:29:34;9.98;;;4.93;;
22525;SDS011;11429;50.842;4.386;2023-05-20T15:32:00;5.63;;;2.20;;
22525;SDS011;11429;50.842;4.386;2023-05-20T15:34:25;6.30;;;2.70;;
22525;SDS011;11429;50.842;4.386;2023-05-20T15:36:51;4.97;;;2.40;;
22525;SDS011;11429;50.842;4.386;2023-05-20T15:39:17;6.50;;;2.35;;
22525;SDS011;11429;50.842;4.386;2023-05-20T15:41:42;7.55;;;2.60;;
22525;SDS011;11429;50.842;4.386;2023-05-20T15:44:11;3.17;;;2.30;;
22525;SDS011;11429;50.842;4.386;2023-05-20T15:46:37;4.20;;;2.65;;
22525;SDS011;11429;50.842;4.386;2023-05-20T15:49:03;5.70;;;2.55;;
22525;SDS011;11429;50.842;4.386;2023-05-20T15:51:28;5.20;;;2.58;;
22525;SDS011;11429;50.842;4.386;2023-05-20T15:53:54;4.32;;;2.45;;
22525;SDS011;11429;50.842;4.386;2023-05-20T15:56:20;2.90;;;2.30;;
22525;SDS011;11429;50.842;4.386;2023-05-20T15:58:46;4.22;;;2.40;;
22525;SDS011;11429;50.842;4.386;2023-05-20T16:01:12;5.20;;;2.65;;
22525;SDS011;11429;50.842;4.386;2023-05-20T16:03:38;5.70;;;2.78;;
22525;SDS011;11429;50.842;4.386;2023-05-20T16:06:03;5.05;;;2.80;;
22525;SDS011;11429;50.842;4.386;2023-05-20T16:08:29;4.40;;;2.80;;
22525;SDS011;11429;50.842;4.386;2023-05-20T16:10:55;5.10;;;3.38;;
22525;SDS011;11429;50.842;4.386;2023-05-20T16:13:21;8.02;;;3.17;;
22525;SDS011;11429;50.842;4.386;2023-05-20T16:15:50;8.88;;;3.10;;
22525;SDS011;11429;50.842;4.386;2023-05-20T16:18:15;9.68;;;3.30;;
22525;SDS011;11429;50.842;4.386;2023-05-20T16:20:41;11.43;;;3.50;;
22525;SDS011;11429;50.842;4.386;2023-05-20T16:23:07;5.55;;;3.47;;
22525;SDS011;11429;50.842;4.386;2023-05-20T16:25:33;6.18;;;3.28;;
22525;SDS011;11429;50.842;4.386;2023-05-20T16:27:58;6.30;;;3.53;;
22525;SDS011;11429;50.842;4.386;2023-05-20T16:30:25;7.18;;;3.10;;
22525;SDS011;11429;50.842;4.386;2023-05-20T16:32:50;5.55;;;3.58;;
22525;SDS011;11429;50.842;4.386;2023-05-20T16:35:16;5.15;;;3.00;;
22525;SDS011;11429;50.842;4.386;2023-05-20T16:37:42;7.85;;;3.67;;
22525;SDS011;11429;50.842;4.386;2023-05-20T16:40:08;10.23;;;3.75;;
22525;SDS011;11429;50.842;4.386;2023-05-20T16:42:34;6.60;;;3.70;;
22525;SDS011;11429;50.842;4.386;2023-05-20T16:45:00;5.90;;;3.28;;
22525;SDS011;11429;50.842;4.386;2023-05-20T16:47:26;7.00;;;3.50;;
22525;SDS011;11429;50.842;4.386;2023-05-20T16:49:51;7.13;;;4.43;;
22525;SDS011;11429;50.842;4.386;2023-05-20T16:52:17;8.75;;;3.95;;
22525;SDS011;11429;50.842;4.386;2023-05-20T16:54:42;5.68;;;3.45;;
22525;SDS011;11429;50.842;4.386;2023-05-20T16:57:08;5.93;;;3.58;;
22525;SDS011;11429;50.842;4.386;2023-05-20T16:59:37;5.15;;;3.47;;
22525;SDS011;11429;50.842;4.386;2023-05-20T17:02:03;6.82;;;3.95;;
22525;SDS011;11429;50.842;4.386;2023-05-20T17:04:29;5.72;;;3.70;;
22525;SDS011;11429;50.842;4.386;2023-05-20T17:07:00;12.40;;;3.92;;
22525;SDS011;11429;50.842;4.386;2023-05-20T17:09:27;5.47;;;3.42;;
22525;SDS011;11429;50.842;4.386;2023-05-20T17:11:53;9.10;;;3.58;;
22525;SDS011;11429;50.842;4.386;2023-05-20T17:14:19;28.70;;;5.30;;
22525;SDS011;11429;50.842;4.386;2023-05-20T17:16:45;11.13;;;4.60;;
22525;SDS011;11429;50.842;4.386;2023-05-20T17:19:11;12.57;;;4.45;;
22525;SDS011;11429;50.842;4.386;2023-05-20T17:21:36;8.27;;;4.68;;
22525;SDS011;11429;50.842;4.386;2023-05-20T17:24:02;5.72;;;4.80;;
22525;SDS011;11429;50.842;4.386;2023-05-20T17:26:28;7.80;;;4.72;;
22525;SDS011;11429;50.842;4.386;2023-05-20T17:28:54;10.80;;;5.15;;
22525;SDS011;11429;50.842;4.386;2023-05-20T17:31:20;7.88;;;4.70;;
22525;SDS011;11429;50.842;4.386;2023-05-20T17:33:45;6.57;;;4.38;;
22525;SDS011;11429;50.842;4.386;2023-05-20T17:36:11;6.45;;;3.83;;
22525;SDS011;11429;50.842;4.386;2023-05-20T17:38:37;8.85;;;4.47;;
22525;SDS011;11429;50.842;4.386;2023-05-20T17:41:03;6.15;;;4.45;;
22525;SDS011;11429;50.842;4.386;2023-05-20T17:43:29;5.63;;;3.72;;
22525;SDS011;11429;50.842;4.386;2023-05-20T17:45:55;7.55;;;3.80;;
22525;SDS011;11429;50.842;4.386;2023-05-20T17:48:20;6.97;;;3.70;;
22525;SDS011;11429;50.842;4.386;2023-05-20T17:50:46;5.65;;;3.70;;
22525;SDS011;11429;50.842;4.386;2023-05-20T17:53:11;7.18;;;3.53;;
22525;SDS011;11429;50.842;4.386;2023-05-20T17:55:37;6.57;;;3.90;;
22525;SDS011;11429;50.842;4.386;2023-05-20T17:58:03;6.07;;;3.47;;
22525;SDS011;11429;50.842;4.386;2023-05-20T18:00:31;5.47;;;4.07;;
22525;SDS011;11429;50.842;4.386;2023-05-20T18:02:58;5.63;;;3.92;;
22525;SDS011;11429;50.842;4.386;2023-05-20T18:05:24;4.90;;;3.60;;
22525;SDS011;11429;50.842;4.386;2023-05-20T18:07:50;4.72;;;3.92;;
22525;SDS011;11429;50.842;4.386;2023-05-20T18:10:16;6.15;;;3.65;;
22525;SDS011;11429;50.842;4.386;2023-05-20T18:12:42;6.28;;;3.70;;
22525;SDS011;11429;50.842;4.386;2023-05-20T18:15:09;5.45;;;3.65;;
22525;SDS011;11429;50.842;4.386;2023-05-20T18:17:37;4.63;;;3.10;;
22525;SDS011;11429;50.842;4.386;2023-05-20T18:20:04;5.13;;;3.20;;
22525;SDS011;11429;50.842;4.386;2023-05-20T18:22:30;7.03;;;3.13;;
22525;SDS011;11429;50.842;4.386;2023-05-20T18:24:55;4.97;;;2.65;;
22525;SDS011;11429;50.842;4.386;2023-05-20T18:27:21;8.50;;;3.25;;
22525;SDS011;11429;50.842;4.386;2023-05-20T18:29:47;6.18;;;3.08;;
22525;SDS011;11429;50.842;4.386;2023-05-20T18:32:13;5.05;;;3.15;;
22525;SDS011;11429;50.842;4.386;2023-05-20T18:34:39;4.03;;;2.70;;
22525;SDS011;11429;50.842;4.386;2023-05-20T18:37:05;8.00;;;3.05;;
22525;SDS011;11429;50.842;4.386;2023-05-20T18:39:31;3.47;;;2.63;;
22525;SDS011;11429;50.842;4.386;2023-05-20T18:41:56;4.88;;;2.90;;
22525;SDS011;11429;50.842;4.386;2023-05-20T18:44:22;3.35;;;2.95;;
22525;SDS011;11429;50.842;4.386;2023-05-20T18:46:48;5.10;;;3.00;;
22525;SDS011;11429;50.842;4.386;2023-05-20T18:49:13;3.53;;;2.70;;
22525;SDS011;11429;50.842;4.386;2023-05-20T18:51:39;6.47;;;2.60;;
22525;SDS011;11429;50.842;4.386;2023-05-20T18:54:05;4.28;;;3.40;;
22525;SDS011;11429;50.842;4.386;2023-05-20T18:56:31;7.47;;;2.83;;
22525;SDS011;11429;50.842;4.386;2023-05-20T18:58:58;4.65;;;2.83;;
22525;SDS011;11429;50.842;4.386;2023-05-20T19:01:24;6.88;;;2.58;;
22525;SDS011;11429;50.842;4.386;2023-05-20T19:03:49;4.82;;;2.92;;
22525;SDS011;11429;50.842;4.386;2023-05-20T19:06:15;8.02;;;3.40;;
22525;SDS011;11429;50.842;4.386;2023-05-20T19:08:41;7.50;;;2.80;;
22525;SDS011;11429;50.842;4.386;2023-05-20T19:11:07;3.35;;;2.60;;
22525;SDS011;11429;50.842;4.386;2023-05-20T19:13:33;5.50;;;2.80;;
22525;SDS011;11429;50.842;4.386;2023-05-20T19:15:59;4.60;;;2.80;;
22525;SDS011;11429;50.842;4.386;2023-05-20T19:18:25;5.03;;;2.70;;
22525;SDS011;11429;50.842;4.386;2023-05-20T19:20:54;4.53;;;2.50;;
22525;SDS011;11429;50.842;4.386;2023-05-20T19:23:19;5.25;;;2.50;;
22525;SDS011;11429;50.842;4.386;2023-05-20T19:25:45;4.90;;;2.72;;
22525;SDS011;11429;50.842;4.386;2023-05-20T19:28:11;5.60;;;2.80;;
22525;SDS011;11429;50.842;4.386;2023-05-20T19:30:36;5.03;;;3.03;;
22525;SDS011;11429;50.842;4.386;2023-05-20T19:33:02;4.53;;;2.72;;
22525;SDS011;11429;50.842;4.386;2023-05-20T19:35:29;6.15;;;2.75;;
22525;SDS011;11429;50.842;4.386;2023-05-20T19:37:55;4.65;;;2.90;;
22525;SDS011;11429;50.842;4.386;2023-05-20T19:40:21;5.00;;;2.70;;
22525;SDS011;11429;50.842;4.386;2023-05-20T19:42:47;5.07;;;2.40;;
22525;SDS011;11429;50.842;4.386;2023-05-20T19:45:13;8.15;;;2.78;;
22525;SDS011;11429;50.842;4.386;2023-05-20T19:47:38;5.93;;;2.83;;
22525;SDS011;11429;50.842;4.386;2023-05-20T19:50:05;5.38;;;2.67;;
22525;SDS011;11429;50.842;4.386;2023-05-20T19:52:31;6.13;;;2.80;;
22525;SDS011;11429;50.842;4.386;2023-05-20T19:54:57;5.70;;;3.10;;
22525;SDS011;11429;50.842;4.386;2023-05-20T19:57:22;5.95;;;2.60;;
22525;SDS011;11429;50.842;4.386;2023-05-20T19:59:48;5.30;;;2.45;;
22525;SDS011;11429;50.842;4.386;2023-05-20T20:02:14;5.43;;;2.72;;
22525;SDS011;11429;50.842;4.386;2023-05-20T20:04:40;5.97;;;2.50;;
22525;SDS011;11429;50.842;4.386;2023-05-20T20:07:09;6.60;;;2.70;;
22525;SDS011;11429;50.842;4.386;2023-05-20T20:09:35;3.55;;;2.50;;
22525;SDS011;11429;50.842;4.386;2023-05-20T20:12:05;4.63;;;2.45;;
22525;SDS011;11429;50.842;4.386;2023-05-20T20:14:31;5.50;;;2.58;;
22525;SDS011;11429;50.842;4.386;2023-05-20T20:16:57;4.90;;;2.80;;
22525;SDS011;11429;50.842;4.386;2023-05-20T20:19:23;5.70;;;2.60;;
22525;SDS011;11429;50.842;4.386;2023-05-20T20:21:52;6.30;;;2.72;;
22525;SDS011;11429;50.842;4.386;2023-05-20T20:24:20;6.20;;;2.90;;
22525;SDS011;11429;50.842;4.386;2023-05-20T20:26:48;3.67;;;2.60;;
22525;SDS011;11429;50.842;4.386;2023-05-20T20:29:18;5.63;;;3.20;;
22525;SDS011;11429;50.842;4.386;2023-05-20T20:31:47;4.78;;;2.70;;
22525;SDS011;11429;50.842;4.386;2023-05-20T20:34:13;7.32;;;3.10;;
22525;SDS011;11429;50.842;4.386;2023-05-20T20:36:38;4.85;;;2.72;;
22525;SDS011;11429;50.842;4.386;2023-05-20T20:39:04;4.65;;;3.00;;
22525;SDS011;11429;50.842;4.386;2023-05-20T20:41:30;6.47;;;3.15;;
22525;SDS011;11429;50.842;4.386;2023-05-20T20:43:57;4.80;;;2.78;;
22525;SDS011;11429;50.842;4.386;2023-05-20T20:46:23;4.28;;;2.90;;
22525;SDS011;11429;50.842;4.386;2023-05-20T20:48:51;4.28;;;2.55;;
22525;SDS011;11429;50.842;4.386;2023-05-20T20:51:17;4.78;;;2.78;;
22525;SDS011;11429;50.842;4.386;2023-05-20T20:53:43;3.80;;;2.58;;
22525;SDS011;11429;50.842;4.386;2023-05-20T20:56:11;5.95;;;3.35;;
22525;SDS011;11429;50.842;4.386;2023-05-20T20:58:37;4.05;;;2.53;;
22525;SDS011;11429;50.842;4.386;2023-05-20T21:01:03;6.30;;;2.70;;
22525;SDS011;11429;50.842;4.386;2023-05-20T21:03:33;7.07;;;2.78;;
22525;SDS011;11429;50.842;4.386;2023-05-20T21:05:59;5.13;;;2.75;;
22525;SDS011;11429;50.842;4.386;2023-05-20T21:08:26;3.80;;;2.65;;
22525;SDS011;11429;50.842;4.386;2023-05-20T21:10:53;6.13;;;2.70;;
22525;SDS011;11429;50.842;4.386;2023-05-20T21:13:23;6.10;;;3.15;;
22525;SDS011;11429;50.842;4.386;2023-05-20T21:15:51;8.93;;;2.47;;
22525;SDS011;11429;50.842;4.386;2023-05-20T21:18:17;4.78;;;2.38;;
22525;SDS011;11429;50.842;4.386;2023-05-20T21:20:49;7.25;;;3.17;;
22525;SDS011;11429;50.842;4.386;2023-05-20T21:23:19;3.97;;;2.83;;
22525;SDS011;11429;50.842;4.386;2023-05-20T21:25:46;7.65;;;3.25;;
22525;SDS011;11429;50.842;4.386;2023-05-20T21:28:12;7.85;;;3.10;;
22525;SDS011;11429;50.842;4.386;2023-05-20T21:30:38;5.07;;;3.03;;
22525;SDS011;11429;50.842;4.386;2023-05-20T21:33:04;4.00;;;2.97;;
22525;SDS011;11429;50.842;4.386;2023-05-20T21:35:30;3.28;;;2.63;;
22525;SDS011;11429;50.842;4.386;2023-05-20T21:37:55;5.68;;;2.97;;
22525;SDS011;11429;50.842;4.386;2023-05-20T21:40:21;5.63;;;3.30;;
22525;SDS011;11429;50.842;4.386;2023-05-20T21:42:47;7.47;;;2.85;;
22525;SDS011;11429;50.842;4.386;2023-05-20T21:45:13;4.55;;;3.13;;
22525;SDS011;11429;50.842;4.386;2023-05-20T21:47:41;7.95;;;3.08;;
22525;SDS011;11429;50.842;4.386;2023-05-20T21:50:07;5.30;;;2.90;;
22525;SDS011;11429;50.842;4.386;2023-05-20T21:52:33;5.13;;;3.00;;
22525;SDS011;11429;50.842;4.386;2023-05-20T21:54:59;5.55;;;2.78;;
22525;SDS011;11429;50.842;4.386;2023-05-20T21:57:24;4.53;;;3.10;;
22525;SDS011;11429;50.842;4.386;2023-05-20T21:59:50;4.82;;;2.83;;
22525;SDS011;11429;50.842;4.386;2023-05-20T22:02:16;4.70;;;2.63;;
22525;SDS011;11429;50.842;4.386;2023-05-20T22:04:41;4.35;;;2.78;;
22525;SDS011;11429;50.842;4.386;2023-05-20T22:07:08;6.18;;;2.95;;
22525;SDS011;11429;50.842;4.386;2023-05-20T22:09:34;7.90;;;3.20;;
22525;SDS011;11429;50.842;4.386;2023-05-20T22:12:00;6.07;;;2.58;;
22525;SDS011;11429;50.842;4.386;2023-05-20T22:14:26;5.32;;;2.72;;
22525;SDS011;11429;50.842;4.386;2023-05-20T22:16:52;6.45;;;2.92;;
22525;SDS011;11429;50.842;4.386;2023-05-20T22:19:19;3.80;;;2.80;;
22525;SDS011;11429;50.842;4.386;2023-05-20T22:21:45;5.78;;;2.97;;
22525;SDS011;11429;50.842;4.386;2023-05-20T22:24:11;3.92;;;2.80;;
22525;SDS011;11429;50.842;4.386;2023-05-20T22:26:36;5.97;;;3.30;;
22525;SDS011;11429;50.842;4.386;2023-05-20T22:29:03;5.30;;;2.95;;
22525;SDS011;11429;50.842;4.386;2023-05-20T22:31:29;8.55;;;6.28;;
22525;SDS011;11429;50.842;4.386;2023-05-20T22:33:55;4.45;;;3.20;;
22525;SDS011;11429;50.842;4.386;2023-05-20T22:36:21;3.60;;;3.17;;
22525;SDS011;11429;50.842;4.386;2023-05-20T22:38:48;4.30;;;3.30;;
22525;SDS011;11429;50.842;4.386;2023-05-20T22:41:15;4.18;;;2.88;;
22525;SDS011;11429;50.842;4.386;2023-05-20T22:43:40;3.88;;;2.80;;
22525;SDS011;11429;50.842;4.386;2023-05-20T22:46:06;5.82;;;2.92;;
22525;SDS011;11429;50.842;4.386;2023-05-20T22:48:32;5.68;;;3.30;;
22525;SDS011;11429;50.842;4.386;2023-05-20T22:50:57;6.18;;;3.20;;
22525;SDS011;11429;50.842;4.386;2023-05-20T22:53:25;8.75;;;3.50;;
22525;SDS011;11429;50.842;4.386;2023-05-20T22:55:51;3.90;;;2.80;;
22525;SDS011;11429;50.842;4.386;2023-05-20T22:58:16;6.70;;;2.72;;
22525;SDS011;11429;50.842;4.386;2023-05-20T23:00:42;5.22;;;2.92;;
22525;SDS011;11429;50.842;4.386;2023-05-20T23:03:08;5.85;;;2.80;;
22525;SDS011;11429;50.842;4.386;2023-05-20T23:05:34;5.00;;;3.13;;
22525;SDS011;11429;50.842;4.386;2023-05-20T23:08:00;3.75;;;2.90;;
22525;SDS011;11429;50.842;4.386;2023-05-20T23:10:26;3.65;;;2.42;;
22525;SDS011;11429;50.842;4.386;2023-05-20T23:12:52;3.85;;;2.67;;
22525;SDS011;11429;50.842;4.386;2023-05-20T23:15:18;4.13;;;2.72;;
22525;SDS011;11429;50.842;4.386;2023-05-20T23:17:44;6.07;;;3.00;;
22525;SDS011;11429;50.842;4.386;2023-05-20T23:20:09;4.85;;;2.70;;
22525;SDS011;11429;50.842;4.386;2023-05-20T23:22:39;5.30;;;2.90;;
22525;SDS011;11429;50.842;4.386;2023-05-20T23:25:05;4.40;;;2.75;;
22525;SDS011;11429;50.842;4.386;2023-05-20T23:27:31;5.15;;;3.10;;
22525;SDS011;11429;50.842;4.386;2023-05-20T23:29:57;4.80;;;3.03;;
22525;SDS011;11429;50.842;4.386;2023-05-20T23:32:23;5.15;;;3.10;;
22525;SDS011;11429;50.842;4.386;2023-05-20T23:34:49;6.95;;;2.90;;
22525;SDS011;11429;50.842;4.386;2023-05-20T23:37:17;5.53;;;2.95;;
22525;SDS011;11429;50.842;4.386;2023-05-20T23:39:44;4.60;;;2.88;;
22525;SDS011;11429;50.842;4.386;2023-05-20T23:42:10;3.67;;;2.55;;
22525;SDS011;11429;50.842;4.386;2023-05-20T23:44:36;7.43;;;3.20;;
22525;SDS011;11429;50.842;4.386;2023-05-20T23:47:02;4.07;;;3.00;;
22525;SDS011;11429;50.842;4.386;2023-05-20T23:49:28;3.72;;;2.80;;
22525;SDS011;11429;50.842;4.386;2023-05-20T23:51:56;4.75;;;2.78;;
22525;SDS011;11429;50.842;4.386;2023-05-20T23:54:21;5.45;;;3.03;;
22525;SDS011;11429;50.842;4.386;2023-05-20T23:56:47;5.10;;;3.05;;
22525;SDS011;11429;50.842;4.386;2023-05-20T23:59:13;4.18;;;2.60;;
